Weather History for KFWZ - January, 2013

Change the Weather History Date:

Friday, January 18, 2013

  Actual Average (KLND) Record (KLND)
Temperature  
Mean Temperature 32 °F 22 °F  
Max Temperature 37 °F 33 °F 55 °F (2009)
Min Temperature 26 °F 10 °F -36 °F (1943)
Degree Days  
Heating Degree Days 34 43  
Month to date heating degree days 783  
Since 1 July heating degree days 4029  
Cooling Degree Days 0 0  
Month to date cooling degree days 0  
Year to date cooling degree days 0  
Moisture  
Dew Point 5 °F    
Average Humidity 33    
Maximum Humidity 40    
Minimum Humidity 25    
Precipitation  
Precipitation 0.00 in 0.01 in 0.43 in (1926)
Month to date precipitation 0.24  
Year to date precipitation 0.24  
Wind  
Wind Speed 11 mph (West)    
Max Wind Speed 20 mph    
Max Gust Speed 28 mph    
Visibility 10 miles    
Events      
T = Trace of Precipitation, MM = Missing Value Source: NWS Daily Summary

Daily Weather History Graph

Daily Weather History Graph

Search for Another Location

Airport or City:

Trip Planner

Search our weather history database for the weather conditions in past years. The results will help you decide how hot, cold, wet, or windy it might be!

Date:

Astronomy

Jan. 18, 2013 Rise Set
Actual Time 7:40 AM MST 5:11 PM MST
Civil Twilight 7:09 AM MST 5:42 PM MST
Nautical Twilight 6:34 AM MST 6:16 PM MST
Astronomical Twilight 6:01 AM MST 6:50 PM MST
Moon 11:09 AM MST (1/18) 12:14 AM MST (1/18)
Length of Visible Light 10h 32m
Length of Day
9h 31m
Waxing Crescent, 48% of the Moon is Illuminated
Jan 18
Waxing Crescent
Jan 18
First Quarter
Jan 26
Full
Feb 3
Last Quarter
Feb 10
New

Hourly Weather History & Observations

Time (MST) Temp. Windchill Dew Point Humidity Pressure Visibility Wind Dir Wind Speed Gust Speed Precip Events Conditions
12:15 AM 30.2 °F 21.9 °F 3.2 °F 32% - 10.0 mi West 9.2 mph - N/A   Clear
12:35 AM 30.2 °F 24.3 °F 3.2 °F 32% - 10.0 mi West 5.8 mph - N/A   Clear
12:55 AM 30.2 °F 24.3 °F 3.2 °F 32% - 10.0 mi West 5.8 mph - N/A   Clear
1:15 AM 30.2 °F 21.9 °F 3.2 °F 32% - 10.0 mi West 9.2 mph - N/A   Clear
1:35 AM 32.0 °F 23.0 °F 3.2 °F 30% - 10.0 mi West 11.5 mph - N/A   Clear
1:55 AM 28.4 °F 18.5 °F 3.2 °F 34% - 10.0 mi West 11.5 mph - N/A   Clear
2:15 AM 28.4 °F 18.5 °F 3.2 °F 34% - 10.0 mi West 11.5 mph - N/A   Clear
2:35 AM 28.4 °F 19.1 °F 5.0 °F 37% - 10.0 mi West 10.4 mph - N/A   Clear
2:55 AM 28.4 °F 18.0 °F 5.0 °F 37% - 10.0 mi West 12.7 mph - N/A   Clear
3:15 AM 28.4 °F 19.1 °F 5.0 °F 37% - 10.0 mi WSW 10.4 mph - N/A   Clear
3:35 AM 30.2 °F - 3.2 °F 32% - 10.0 mi Calm Calm - N/A   Clear
3:55 AM 32.0 °F 24.2 °F 1.4 °F 27% - 10.0 mi West 9.2 mph - N/A   Clear
4:15 AM 32.0 °F 24.2 °F 1.4 °F 27% - 10.0 mi West 9.2 mph - N/A   Clear
4:35 AM 30.2 °F 20.8 °F 3.2 °F 32% - 10.0 mi West 11.5 mph - N/A   Clear
4:55 AM 28.4 °F 17.5 °F 5.0 °F 37% - 10.0 mi West 13.8 mph - N/A   Clear
5:15 AM 30.2 °F 20.8 °F 5.0 °F 34% - 10.0 mi West 11.5 mph - N/A   Clear
5:35 AM 28.4 °F 18.5 °F 5.0 °F 37% - 10.0 mi West 11.5 mph - N/A   Clear
5:55 AM 30.2 °F 21.9 °F 3.2 °F 32% - 10.0 mi West 9.2 mph - N/A   Clear
6:15 AM 32.0 °F 23.6 °F 1.4 °F 27% - 10.0 mi West 10.4 mph - N/A   Clear
6:35 AM 30.2 °F 21.3 °F 3.2 °F 32% - 10.0 mi West 10.4 mph - N/A   Clear
7:15 AM 30.2 °F 23.4 °F 1.4 °F 29% - 10.0 mi West 6.9 mph - N/A   Clear
7:35 AM 30.2 °F 23.4 °F 3.2 °F 32% - 10.0 mi West 6.9 mph - N/A   Clear
7:55 AM 30.2 °F 21.9 °F 3.2 °F 32% - 10.0 mi West 9.2 mph - N/A   Clear
8:15 AM 28.4 °F 19.7 °F 3.2 °F 34% - 10.0 mi West 9.2 mph - N/A   Clear
8:35 AM 30.2 °F 21.9 °F 3.2 °F 32% - 10.0 mi West 9.2 mph - N/A   Clear
8:55 AM 32.0 °F 24.2 °F 3.2 °F 30% - 10.0 mi West 9.2 mph - N/A   Clear
9:15 AM 32.0 °F 23.6 °F 5.0 °F 32% - 10.0 mi West 10.4 mph - N/A   Clear
9:35 AM 32.0 °F 23.0 °F 5.0 °F 32% - 10.0 mi West 11.5 mph - N/A   Clear
9:55 AM 32.0 °F 21.6 °F 5.0 °F 32% - 10.0 mi WSW 15.0 mph - N/A   Clear
10:15 AM 32.0 °F 22.1 °F 6.8 °F 35% - 10.0 mi WSW 13.8 mph - N/A   Clear
10:35 AM 33.8 °F 24.3 °F 8.6 °F 35% - 10.0 mi West 13.8 mph 18.4 mph N/A   Clear
10:55 AM 33.8 °F 23.5 °F 8.6 °F 35% - 10.0 mi West 16.1 mph 23.0 mph N/A   Clear
11:15 AM 33.8 °F 24.3 °F 8.6 °F 35% - 10.0 mi West 13.8 mph - N/A   Clear
11:35 AM 33.8 °F 22.8 °F 8.6 °F 35% - 10.0 mi West 18.4 mph 24.2 mph N/A   Clear
11:55 AM 33.8 °F 22.8 °F 8.6 °F 35% - 10.0 mi West 18.4 mph 24.2 mph N/A   Clear
12:15 PM 33.8 °F 23.2 °F 10.4 °F 38% - 10.0 mi WSW 17.3 mph - N/A   Clear
12:35 PM 33.8 °F 24.3 °F 10.4 °F 38% - 10.0 mi WSW 13.8 mph - N/A   Clear
12:55 PM 35.6 °F 25.5 °F 10.4 °F 35% - 10.0 mi West 17.3 mph 21.9 mph N/A   Clear
1:15 PM 35.6 °F 25.9 °F 8.6 °F 33% - 10.0 mi West 16.1 mph 23.0 mph N/A   Clear
1:35 PM 35.6 °F 25.9 °F 8.6 °F 33% - 10.0 mi West 16.1 mph 26.5 mph N/A   Clear
1:55 PM 35.6 °F 25.5 °F 10.4 °F 35% - 10.0 mi WSW 17.3 mph - N/A   Clear
2:15 PM 35.6 °F 27.1 °F 10.4 °F 35% - 10.0 mi WSW 12.7 mph - N/A   Clear
2:35 PM 33.8 °F 25.8 °F 10.4 °F 38% - 10.0 mi WSW 10.4 mph - N/A   Clear
2:55 PM 35.6 °F 28.6 °F 8.6 °F 33% - 10.0 mi WSW 9.2 mph - N/A   Clear
3:15 PM 33.8 °F 25.8 °F 10.4 °F 38% - 10.0 mi West 10.4 mph - N/A   Clear
3:35 PM 35.6 °F 28.6 °F 8.6 °F 33% - 10.0 mi WSW 9.2 mph - N/A   Clear
3:55 PM 33.8 °F 27.7 °F 8.6 °F 35% - 10.0 mi SW 6.9 mph - N/A   Clear
4:15 PM 37.4 °F 32.1 °F 6.8 °F 28% - 10.0 mi SW 6.9 mph 20.7 mph N/A   Clear
4:35 PM 35.6 °F 28.6 °F 6.8 °F 30% - 10.0 mi West 9.2 mph - N/A   Clear
4:55 PM 33.8 °F 22.8 °F 6.8 °F 32% - 10.0 mi West 18.4 mph 25.3 mph N/A   Clear
5:15 PM 32.0 °F 21.6 °F 6.8 °F 35% - 10.0 mi West 15.0 mph 20.7 mph N/A   Clear
5:35 PM 33.8 °F 23.9 °F 3.2 °F 28% - 10.0 mi WNW 15.0 mph - N/A   Clear
5:55 PM 33.8 °F 23.9 °F 3.2 °F 28% - 10.0 mi West 15.0 mph 21.9 mph N/A   Clear
6:15 PM 33.8 °F 24.8 °F 1.4 °F 25% - 10.0 mi West 12.7 mph 19.6 mph N/A   Clear
6:35 PM 33.8 °F 26.4 °F 1.4 °F 25% - 10.0 mi West 9.2 mph - N/A   Clear
6:55 PM 33.8 °F 27.7 °F 1.4 °F 25% - 10.0 mi West 6.9 mph 16.1 mph N/A   Clear
7:15 PM 32.0 °F 21.6 °F 3.2 °F 30% - 10.0 mi West 15.0 mph 19.6 mph N/A   Clear
7:55 PM 32.0 °F 22.5 °F 3.2 °F 30% - 10.0 mi West 12.7 mph 19.6 mph N/A   Clear
8:15 PM 32.0 °F 21.6 °F 3.2 °F 30% - 10.0 mi West 15.0 mph 20.7 mph N/A   Clear
8:35 PM 32.0 °F 22.1 °F 3.2 °F 30% - 10.0 mi West 13.8 mph 19.6 mph N/A   Clear
9:15 PM 30.2 °F 18.9 °F 3.2 °F 32% - 10.0 mi West 16.1 mph 23.0 mph N/A   Clear
9:35 PM 32.0 °F 20.1 °F 3.2 °F 30% - 10.0 mi West 19.6 mph 27.6 mph N/A   Clear
9:55 PM 30.2 °F 18.5 °F 5.0 °F 34% - 10.0 mi West 17.3 mph 24.2 mph N/A   Clear
10:15 PM 30.2 °F 19.3 °F 5.0 °F 34% - 10.0 mi West 15.0 mph 19.6 mph N/A   Clear
10:35 PM 28.4 °F 18.0 °F 5.0 °F 37% - 10.0 mi West 12.7 mph 21.9 mph N/A   Clear
10:55 PM 28.4 °F 17.0 °F 5.0 °F 37% - 10.0 mi West 15.0 mph - N/A   Clear
11:15 PM 28.4 °F 17.5 °F 5.0 °F 37% - 10.0 mi West 13.8 mph 19.6 mph N/A   Clear
11:35 PM 26.6 °F 17.5 °F 5.0 °F 40% - 10.0 mi West 9.2 mph - N/A   Clear
11:55 PM 26.6 °F 16.8 °F 5.0 °F 40% - 10.0 mi West 10.4 mph - N/A   Clear